Time;durP1;ratioP1;P1;durP2;ratioP2;P2;SDS_P1;SDS_P2;PMS_P1;PMS_P2;Temp;Humidity;BMP_temperature;BMP_pressure;BME280_temperature;BME280_humidity;BME280_pressure;Samples;Min_cycle;Max_cycle;Signal;HPM_P1;HPM_P2
2024/02/01 00:01:51;;;;;;;38.43;17.37;;;;;;;;;;5008896;28;20030;-74
2024/02/01 00:04:17;;;;;;;32.47;15.30;;;;;;;;;;5029813;28;20017;-74
2024/02/01 00:06:42;;;;;;;32.73;16.27;;;;;;;;;;5028941;28;20098;-75
2024/02/01 00:09:08;;;;;;;31.23;16.23;;;;;;;;;;5028496;28;20021;-75
2024/02/01 00:11:33;;;;;;;39.77;15.80;;;;;;;;;;5044054;28;20025;-75
2024/02/01 00:13:59;;;;;;;35.93;15.27;;;;;;;;;;5028530;28;20025;-75
2024/02/01 00:16:24;;;;;;;43.23;15.83;;;;;;;;;;5028572;28;20363;-74
2024/02/01 00:18:50;;;;;;;29.50;14.60;;;;;;;;;;5043604;28;20025;-74
2024/02/01 00:21:17;;;;;;;37.10;14.93;;;;;;;;;;5043413;28;20501;-75
2024/02/01 00:23:43;;;;;;;32.10;15.90;;;;;;;;;;5028291;28;20022;-74
2024/02/01 00:26:09;;;;;;;30.00;14.83;;;;;;;;;;5025603;28;20049;-76
2024/02/01 00:28:35;;;;;;;29.67;14.23;;;;;;;;;;5043816;28;20122;-74
2024/02/01 00:31:01;;;;;;;31.70;14.60;;;;;;;;;;5024683;28;20057;-75
2024/02/01 00:33:26;;;;;;;28.43;14.60;;;;;;;;;;5023785;28;20037;-72
2024/02/01 00:35:52;;;;;;;27.80;14.20;;;;;;;;;;5023687;28;20030;-76
2024/02/01 00:38:17;;;;;;;31.90;13.40;;;;;;;;;;5023418;28;20034;-75
2024/02/01 00:40:43;;;;;;;33.60;14.23;;;;;;;;;;5023738;28;20044;-74
2024/02/01 00:43:08;;;;;;;28.83;13.43;;;;;;;;;;5008513;28;20026;-75
2024/02/01 00:45:34;;;;;;;26.27;13.50;;;;;;;;;;5012191;28;20034;-74
2024/02/01 00:47:59;;;;;;;34.33;15.70;;;;;;;;;;5026885;28;20026;-73
2024/02/01 00:50:25;;;;;;;26.60;13.37;;;;;;;;;;5026931;28;20034;-73
2024/02/01 00:52:51;;;;;;;26.70;12.83;;;;;;;;;;5026481;28;20050;-75
2024/02/01 00:55:16;;;;;;;25.50;13.03;;;;;;;;;;5026704;28;20485;-73
2024/02/01 00:57:42;;;;;;;27.20;13.27;;;;;;;;;;5011815;28;20026;-72
2024/02/01 01:00:07;;;;;;;25.80;13.27;;;;;;;;;;5026747;28;20061;-74
2024/02/01 01:02:33;;;;;;;22.90;12.80;;;;;;;;;;5026950;28;20029;-75
2024/02/01 01:04:58;;;;;;;28.07;13.33;;;;;;;;;;5011565;28;20160;-68
2024/02/01 01:07:24;;;;;;;24.93;11.50;;;;;;;;;;5011753;28;20411;-75
2024/02/01 01:09:52;;;;;;;28.80;12.77;;;;;;;;;;5026896;28;20509;-73
2024/02/01 01:12:21;;;;;;;26.13;12.70;;;;;;;;;;5011596;28;20022;-73
2024/02/01 01:14:47;;;;;;;25.30;12.50;;;;;;;;;;5027005;28;20120;-73
2024/02/01 01:17:13;;;;;;;24.17;11.17;;;;;;;;;;5027002;28;20026;-74
2024/02/01 01:19:39;;;;;;;26.40;11.90;;;;;;;;;;5012084;28;20060;-75
2024/02/01 01:22:04;;;;;;;23.73;12.10;;;;;;;;;;5010236;28;20026;-75
2024/02/01 01:24:30;;;;;;;20.70;11.13;;;;;;;;;;5026915;28;20036;-74
2024/02/01 01:26:55;;;;;;;29.60;12.77;;;;;;;;;;5026798;28;20076;-74
2024/02/01 01:29:21;;;;;;;24.07;13.23;;;;;;;;;;5026203;28;20022;-74
2024/02/01 01:31:46;;;;;;;26.70;12.83;;;;;;;;;;5026535;28;20505;-74
2024/02/01 01:34:13;;;;;;;28.60;13.03;;;;;;;;;;5011099;28;20036;-74
2024/02/01 01:36:38;;;;;;;29.17;12.43;;;;;;;;;;5011114;28;20160;-73
2024/02/01 01:39:04;;;;;;;25.03;12.63;;;;;;;;;;5026229;28;20112;-74
2024/02/01 01:41:30;;;;;;;24.97;12.37;;;;;;;;;;5010338;28;20048;-75
2024/02/01 01:43:55;;;;;;;24.67;12.97;;;;;;;;;;5011520;28;20034;-74
2024/02/01 01:46:22;;;;;;;28.30;13.33;;;;;;;;;;5011045;28;20045;-74
2024/02/01 01:48:48;;;;;;;26.20;12.70;;;;;;;;;;5009892;28;20025;-75
2024/02/01 01:51:15;;;;;;;26.10;13.23;;;;;;;;;;5010758;28;20443;-73
2024/02/01 01:53:44;;;;;;;23.87;12.23;;;;;;;;;;5010348;28;20081;-76
2024/02/01 01:56:11;;;;;;;24.43;12.07;;;;;;;;;;5009311;28;20032;-75
2024/02/01 01:58:39;;;;;;;25.70;12.70;;;;;;;;;;5026486;28;20478;-75
2024/02/01 02:01:06;;;;;;;23.87;12.40;;;;;;;;;;5025776;28;20038;-72
2024/02/01 02:03:36;;;;;;;23.80;13.13;;;;;;;;;;5010274;28;20022;-74
2024/02/01 02:06:02;;;;;;;26.00;12.70;;;;;;;;;;5025850;28;20064;-72
2024/02/01 02:08:28;;;;;;;18.63;10.17;;;;;;;;;;5026193;28;20073;-76
2024/02/01 02:10:53;;;;;;;20.27;10.77;;;;;;;;;;5026230;28;20117;-75
2024/02/01 02:13:20;;;;;;;21.00;10.23;;;;;;;;;;5009437;28;20100;-74
2024/02/01 02:15:45;;;;;;;19.80;9.23;;;;;;;;;;5025953;28;20030;-74
2024/02/01 02:18:11;;;;;;;21.07;10.70;;;;;;;;;;5010738;28;20037;-74
2024/02/01 02:20:42;;;;;;;21.10;9.67;;;;;;;;;;5025725;28;20141;-73
2024/02/01 02:23:12;;;;;;;17.63;8.97;;;;;;;;;;5010511;28;20032;-75
2024/02/01 02:25:38;;;;;;;16.07;6.97;;;;;;;;;;4993897;28;20030;-73
2024/02/01 02:28:04;;;;;;;14.67;6.80;;;;;;;;;;5012386;28;20048;-71
2024/02/01 02:30:30;;;;;;;13.80;6.97;;;;;;;;;;5014550;28;20367;-75
2024/02/01 02:32:55;;;;;;;13.70;6.03;;;;;;;;;;5011883;28;20026;-74
2024/02/01 02:35:21;;;;;;;15.97;7.17;;;;;;;;;;5012218;28;20026;-74
2024/02/01 02:37:48;;;;;;;18.33;6.03;;;;;;;;;;5008609;28;20022;-74
2024/02/01 02:40:21;;;;;;;10.17;5.97;;;;;;;;;;5009825;28;20022;-74
2024/02/01 02:42:48;;;;;;;14.57;6.80;;;;;;;;;;5009797;28;20025;-75
2024/02/01 02:45:14;;;;;;;14.13;6.50;;;;;;;;;;5008215;28;20036;-74
2024/02/01 02:47:39;;;;;;;12.00;5.70;;;;;;;;;;5008365;28;20018;-74
2024/02/01 02:50:09;;;;;;;11.83;5.17;;;;;;;;;;5010154;28;20071;-73
2024/02/01 02:52:39;;;;;;;13.00;5.60;;;;;;;;;;5010394;28;20118;-73
2024/02/01 02:55:08;;;;;;;12.00;6.17;;;;;;;;;;4992296;28;20512;-70
2024/02/01 02:57:34;;;;;;;10.87;5.40;;;;;;;;;;5008369;28;20147;-75
2024/02/01 03:00:02;;;;;;;11.27;6.20;;;;;;;;;;5009837;28;20551;-74
2024/02/01 03:02:27;;;;;;;12.13;5.13;;;;;;;;;;5008087;28;20076;-73
2024/02/01 03:04:53;;;;;;;8.07;4.90;;;;;;;;;;5009497;28;20155;-74
2024/02/01 03:07:19;;;;;;;11.83;4.20;;;;;;;;;;5009127;28;20025;-75
2024/02/01 03:09:44;;;;;;;8.90;5.00;;;;;;;;;;5009657;28;20033;-73
2024/02/01 03:12:10;;;;;;;8.53;4.33;;;;;;;;;;5027424;28;20532;-76
2024/02/01 03:14:40;;;;;;;11.33;5.80;;;;;;;;;;5029303;28;20036;-74
2024/02/01 03:17:07;;;;;;;8.90;5.00;;;;;;;;;;5028857;28;20041;-73
2024/02/01 03:19:42;;;;;;;11.93;5.43;;;;;;;;;;5028514;28;20138;-74
2024/02/01 03:22:08;;;;;;;9.07;5.03;;;;;;;;;;5009582;28;20053;-75
2024/02/01 03:24:34;;;;;;;7.90;4.93;;;;;;;;;;4991373;28;20470;-74
2024/02/01 03:27:00;;;;;;;12.07;5.70;;;;;;;;;;5009829;28;20018;-74
2024/02/01 03:29:27;;;;;;;8.27;4.77;;;;;;;;;;5009001;28;20026;-74
2024/02/01 03:31:53;;;;;;;8.20;4.33;;;;;;;;;;5007968;28;20034;-75
2024/02/01 03:34:22;;;;;;;9.63;5.40;;;;;;;;;;5007640;28;20113;-73
2024/02/01 03:36:52;;;;;;;12.80;5.37;;;;;;;;;;5009137;28;20029;-75
2024/02/01 03:39:24;;;;;;;7.80;4.70;;;;;;;;;;5013795;28;20397;-75
2024/02/01 03:41:51;;;;;;;7.60;4.03;;;;;;;;;;5023871;28;20109;-74
2024/02/01 03:44:17;;;;;;;9.43;5.17;;;;;;;;;;5007667;28;20048;-75
2024/02/01 03:46:44;;;;;;;11.30;4.97;;;;;;;;;;5007489;28;20065;-75
2024/02/01 03:49:11;;;;;;;8.37;4.47;;;;;;;;;;5007871;28;20026;-74
2024/02/01 03:51:41;;;;;;;7.07;4.75;;;;;;;;;;5007665;28;20418;-75
2024/02/01 03:54:08;;;;;;;7.37;4.40;;;;;;;;;;5007515;28;20069;-74
2024/02/01 03:56:43;;;;;;;8.93;4.10;;;;;;;;;;5019402;28;20022;-75
2024/02/01 03:59:09;;;;;;;7.53;4.47;;;;;;;;;;5027158;28;20376;-75
2024/02/01 04:01:36;;;;;;;7.70;4.70;;;;;;;;;;5015663;28;20133;-74
2024/02/01 04:04:05;;;;;;;8.77;4.37;;;;;;;;;;5007339;28;20512;-74
2024/02/01 04:06:34;;;;;;;6.90;4.07;;;;;;;;;;5007460;28;20514;-76
2024/02/01 04:09:00;;;;;;;8.93;4.53;;;;;;;;;;4991062;28;20406;-76
2024/02/01 04:11:29;;;;;;;13.33;5.57;;;;;;;;;;5007623;28;20227;-75
2024/02/01 04:13:58;;;;;;;9.90;5.60;;;;;;;;;;5007493;28;20033;-77
2024/02/01 04:16:24;;;;;;;9.40;4.70;;;;;;;;;;5008878;28;20057;-75
2024/02/01 04:18:51;;;;;;;11.80;6.53;;;;;;;;;;5010333;28;20079;-75
2024/02/01 04:21:17;;;;;;;11.60;5.77;;;;;;;;;;5020936;28;20025;-75
2024/02/01 04:23:43;;;;;;;7.70;4.97;;;;;;;;;;5031750;28;20120;-74
2024/02/01 04:26:14;;;;;;;10.30;5.80;;;;;;;;;;5032305;28;20018;-75
2024/02/01 04:28:40;;;;;;;9.88;5.10;;;;;;;;;;5031180;28;20048;-75
2024/02/01 04:31:06;;;;;;;13.60;6.07;;;;;;;;;;5031754;28;20037;-73
2024/02/01 04:33:31;;;;;;;10.30;6.20;;;;;;;;;;5032269;28;20111;-74
2024/02/01 04:35:57;;;;;;;10.57;5.73;;;;;;;;;;5031718;28;20285;-75
2024/02/01 04:38:25;;;;;;;9.00;5.20;;;;;;;;;;5030380;28;20078;-75
2024/02/01 04:40:51;;;;;;;13.67;6.33;;;;;;;;;;5028713;28;20463;-74
2024/02/01 04:43:19;;;;;;;11.50;5.63;;;;;;;;;;5015534;28;20029;-75
2024/02/01 04:45:48;;;;;;;17.30;8.43;;;;;;;;;;5029511;28;20026;-76
2024/02/01 04:48:13;;;;;;;22.87;7.07;;;;;;;;;;5010249;28;20061;-75
2024/02/01 04:50:39;;;;;;;12.70;7.27;;;;;;;;;;4993919;28;20084;-74
2024/02/01 04:53:06;;;;;;;30.50;9.00;;;;;;;;;;5010006;28;20065;-71
2024/02/01 04:55:32;;;;;;;26.23;10.17;;;;;;;;;;5011763;28;20108;-75
2024/02/01 04:57:58;;;;;;;66.07;17.47;;;;;;;;;;5011736;28;20172;-73
2024/02/01 05:00:24;;;;;;;39.77;11.90;;;;;;;;;;5011667;28;20432;-75
2024/02/01 05:02:49;;;;;;;41.50;10.60;;;;;;;;;;5026747;28;20038;-75
2024/02/01 05:05:16;;;;;;;20.07;8.43;;;;;;;;;;5011377;28;20081;-74
2024/02/01 05:07:43;;;;;;;27.93;9.67;;;;;;;;;;5011067;28;20072;-72
2024/02/01 05:10:09;;;;;;;17.20;7.47;;;;;;;;;;5013477;28;20474;-75
2024/02/01 05:12:38;;;;;;;16.00;6.17;;;;;;;;;;5029846;28;20048;-74
2024/02/01 05:15:07;;;;;;;8.97;5.83;;;;;;;;;;5029422;28;20059;-73
2024/02/01 05:17:36;;;;;;;14.40;5.87;;;;;;;;;;5014877;28;20052;-74
2024/02/01 05:20:08;;;;;;;11.60;5.87;;;;;;;;;;5011731;28;20493;-75
2024/02/01 05:22:40;;;;;;;11.98;5.45;;;;;;;;;;5010409;28;20034;-74
2024/02/01 05:25:16;;;;;;;13.45;5.93;;;;;;;;;;5010202;28;20032;-75
2024/02/01 05:27:50;;;;;;;11.77;5.00;;;;;;;;;;5026113;28;20116;-75
2024/02/01 05:30:16;;;;;;;12.60;5.50;;;;;;;;;;5029774;28;20022;-76
2024/02/01 05:32:51;;;;;;;7.50;4.73;;;;;;;;;;5031273;28;20034;-74
2024/02/01 05:35:27;;;;;;;8.50;4.70;;;;;;;;;;5029434;28;20045;-75
2024/02/01 05:37:54;;;;;;;9.87;5.13;;;;;;;;;;5012345;28;20096;-74
2024/02/01 05:40:20;;;;;;;8.87;5.00;;;;;;;;;;5011278;28;20022;-75
2024/02/01 05:42:46;;;;;;;26.58;8.48;;;;;;;;;;5027166;28;20036;-75
2024/02/01 05:45:13;;;;;;;17.02;6.75;;;;;;;;;;5029536;28;20037;-74
2024/02/01 05:47:39;;;;;;;10.10;5.78;;;;;;;;;;5029271;28;20099;-74
2024/02/01 05:50:06;;;;;;;11.50;5.50;;;;;;;;;;5030143;28;20048;-75
2024/02/01 05:52:38;;;;;;;13.00;4.78;;;;;;;;;;5017511;28;20138;-75
2024/02/01 05:55:13;;;;;;;9.43;5.60;;;;;;;;;;5009508;28;20397;-75
2024/02/01 05:57:39;;;;;;;8.75;4.10;;;;;;;;;;5009399;28;20030;-75
2024/02/01 06:00:10;;;;;;;7.25;3.70;;;;;;;;;;5010904;28;20033;-72
2024/02/01 06:02:36;;;;;;;6.72;4.05;;;;;;;;;;5009540;28;20029;-74
2024/02/01 06:05:03;;;;;;;9.88;4.25;;;;;;;;;;5009539;28;20133;-74
2024/02/01 06:07:28;;;;;;;7.80;4.28;;;;;;;;;;5010693;28;20092;-75
2024/02/01 06:09:54;;;;;;;14.27;4.03;;;;;;;;;;5011328;28;20033;-74
2024/02/01 06:12:19;;;;;;;7.30;4.28;;;;;;;;;;5021716;28;20427;-74
2024/02/01 06:14:45;;;;;;;8.70;4.75;;;;;;;;;;5030515;28;20048;-74
2024/02/01 06:17:10;;;;;;;9.85;3.78;;;;;;;;;;5030130;28;20033;-74
2024/02/01 06:19:36;;;;;;;10.52;4.85;;;;;;;;;;5025484;28;20026;-73
2024/02/01 06:22:05;;;;;;;7.57;3.83;;;;;;;;;;5009252;28;20038;-74
2024/02/01 06:24:34;;;;;;;8.53;4.77;;;;;;;;;;5010494;28;20452;-74
2024/02/01 06:27:00;;;;;;;12.25;4.20;;;;;;;;;;5010958;28;20022;-75
2024/02/01 06:29:25;;;;;;;8.90;5.10;;;;;;;;;;5009014;28;20037;-76
2024/02/01 06:31:51;;;;;;;7.18;4.75;;;;;;;;;;5010514;28;20037;-73
2024/02/01 06:34:26;;;;;;;9.43;4.20;;;;;;;;;;5011325;28;20033;-73
2024/02/01 06:36:58;;;;;;;9.30;4.32;;;;;;;;;;5012812;28;20128;-75
2024/02/01 06:42:04;;;;;;;8.90;4.30;;;;;;;;;;5009619;28;20025;-76
2024/02/01 06:44:31;;;;;;;8.40;4.47;;;;;;;;;;5009535;28;20037;-70
2024/02/01 06:49:39;;;;;;;6.25;4.30;;;;;;;;;;5003793;28;20041;-73
2024/02/01 06:52:24;;;;;;;8.93;5.30;;;;;;;;;;4995241;28;20061;-73
2024/02/01 06:55:35;;;;;;;11.37;5.33;;;;;;;;;;5006653;28;20107;-74
2024/02/01 07:06:16;;;;;;;;;;;;;;;;;;;;;
2024/02/01 07:08:52;;;;;;;7.77;4.60;;;;;;;;;;4982076;28;20125;-73
2024/02/01 07:11:30;;;;;;;8.27;5.20;;;;;;;;;;5014529;28;20018;-75
2024/02/01 07:16:35;;;;;;;9.27;4.87;;;;;;;;;;5017824;28;20053;-76
2024/02/01 07:19:23;;;;;;;9.80;5.80;;;;;;;;;;5006173;28;20299;-77
2024/02/01 07:22:00;;;;;;;8.70;5.20;;;;;;;;;;5028518;28;20037;-77
2024/02/01 07:24:49;;;;;;;6.82;4.65;;;;;;;;;;5027485;28;20037;-75
2024/02/01 07:58:19;;;;;;;11.30;4.73;;;;;;;;;;5047116;28;20037;-75
2024/02/01 08:00:45;;;;;;;9.77;4.83;;;;;;;;;;5039463;28;20041;-75
2024/02/01 08:09:11;;;;;;;8.32;4.90;;;;;;;;;;5020734;28;20037;-77
2024/02/01 08:11:55;;;;;;;12.57;5.05;;;;;;;;;;5006055;28;20045;-76
2024/02/01 08:14:28;;;;;;;9.27;4.37;;;;;;;;;;5005245;28;20465;-78
2024/02/01 08:16:53;;;;;;;5.22;3.53;;;;;;;;;;5013733;28;20029;-74
2024/02/01 08:19:20;;;;;;;8.67;3.73;;;;;;;;;;5006500;28;20053;-75
2024/02/01 08:22:08;;;;;;;5.32;3.42;;;;;;;;;;5015863;28;20030;-74
2024/02/01 08:24:40;;;;;;;7.32;3.97;;;;;;;;;;5003230;28;20034;-75
2024/02/01 08:27:14;;;;;;;6.85;3.88;;;;;;;;;;5001969;28;20022;-74
2024/02/01 08:29:40;;;;;;;5.85;3.60;;;;;;;;;;5043369;28;20048;-73
2024/02/01 08:32:08;;;;;;;7.57;4.00;;;;;;;;;;5008941;28;20018;-71
2024/02/01 08:34:39;;;;;;;6.57;3.22;;;;;;;;;;5005001;28;20104;-76
2024/02/01 08:37:35;;;;;;;9.23;4.20;;;;;;;;;;4991463;28;20064;-76
2024/02/01 08:40:03;;;;;;;8.77;3.10;;;;;;;;;;5006141;28;20029;-78
2024/02/01 08:42:33;;;;;;;6.35;3.88;;;;;;;;;;5010054;28;20026;-76
2024/02/01 08:45:02;;;;;;;6.07;3.23;;;;;;;;;;4976044;28;20034;-74
2024/02/01 08:47:41;;;;;;;7.25;3.72;;;;;;;;;;5007332;28;20022;-77
2024/02/01 08:50:24;;;;;;;4.60;2.90;;;;;;;;;;5002952;28;20037;-76
2024/02/01 08:52:54;;;;;;;5.78;3.42;;;;;;;;;;5005237;28;20046;-75
2024/02/01 08:55:31;;;;;;;4.10;2.67;;;;;;;;;;5013629;28;20065;-75
2024/02/01 08:58:08;;;;;;;3.95;2.45;;;;;;;;;;5008728;28;20027;-78
2024/02/01 09:00:49;;;;;;;8.82;2.80;;;;;;;;;;5002891;28;20038;-77
2024/02/01 09:03:17;;;;;;;5.10;2.80;;;;;;;;;;5006351;28;20038;-74
2024/02/01 09:05:49;;;;;;;7.20;2.90;;;;;;;;;;5012931;28;20041;-75
2024/02/01 09:08:40;;;;;;;4.38;3.15;;;;;;;;;;5015099;28;20018;-76
2024/02/01 09:11:11;;;;;;;6.78;2.75;;;;;;;;;;5001523;28;20048;-78
2024/02/01 09:13:51;;;;;;;3.78;2.67;;;;;;;;;;5010635;28;20038;-75
2024/02/01 09:16:30;;;;;;;13.65;4.68;;;;;;;;;;5003619;28;20070;-72
2024/02/01 09:19:14;;;;;;;3.83;2.58;;;;;;;;;;5009224;28;20026;-79
2024/02/01 09:21:45;;;;;;;9.23;4.95;;;;;;;;;;5004426;28;20058;-77
2024/02/01 09:24:15;;;;;;;3.17;2.58;;;;;;;;;;5009534;28;20085;-76
2024/02/01 09:26:48;;;;;;;3.13;2.17;;;;;;;;;;5003212;28;20026;-75
2024/02/01 09:29:22;;;;;;;3.22;2.42;;;;;;;;;;5009783;28;20061;-74
2024/02/01 09:31:51;;;;;;;3.13;2.03;;;;;;;;;;4984220;28;20041;-76
2024/02/01 09:34:28;;;;;;;3.65;1.90;;;;;;;;;;5005813;28;20589;-74
2024/02/01 09:36:56;;;;;;;4.10;1.80;;;;;;;;;;5016668;28;20045;-75
2024/02/01 09:39:25;;;;;;;2.65;2.05;;;;;;;;;;4991383;28;20108;-75
2024/02/01 09:42:11;;;;;;;5.72;2.28;;;;;;;;;;5004684;28;20113;-78
2024/02/01 09:44:47;;;;;;;3.83;2.40;;;;;;;;;;5009922;28;20057;-80
2024/02/01 09:47:13;;;;;;;4.00;2.17;;;;;;;;;;5007458;28;20425;-74
2024/02/01 09:49:52;;;;;;;3.03;2.20;;;;;;;;;;5005936;28;20077;-75
2024/02/01 09:52:31;;;;;;;1.83;1.40;;;;;;;;;;4992613;28;20054;-78
2024/02/01 09:54:58;;;;;;;2.70;1.95;;;;;;;;;;5008615;28;20107;-76
2024/02/01 09:57:48;;;;;;;3.97;1.98;;;;;;;;;;5002123;28;20061;-75
2024/02/01 10:00:26;;;;;;;5.43;2.05;;;;;;;;;;5007418;28;20093;-75
2024/02/01 10:03:36;;;;;;;2.67;1.85;;;;;;;;;;5010597;28;20509;-72
2024/02/01 10:06:21;;;;;;;4.18;1.85;;;;;;;;;;5002467;28;20303;-79
2024/02/01 10:09:29;;;;;;;6.47;3.22;;;;;;;;;;5004453;28;20044;-74
2024/02/01 10:12:06;;;;;;;3.33;1.70;;;;;;;;;;5004052;28;20057;-75
2024/02/01 10:15:26;;;;;;;5.90;1.42;;;;;;;;;;5026008;28;20037;-76
2024/02/01 10:17:58;;;;;;;2.38;1.77;;;;;;;;;;4922882;29;20417;-76
2024/02/01 10:20:53;;;;;;;3.22;1.92;;;;;;;;;;4986396;28;20026;-76
2024/02/01 10:23:24;;;;;;;3.60;1.92;;;;;;;;;;4984423;28;20033;-73
2024/02/01 10:26:05;;;;;;;2.05;1.45;;;;;;;;;;5007180;28;20026;-78
2024/02/01 10:28:42;;;;;;;20.33;6.97;;;;;;;;;;4983912;28;20038;-75
2024/02/01 10:31:18;;;;;;;2.90;1.85;;;;;;;;;;5003420;28;20050;-75
2024/02/01 10:34:19;;;;;;;6.28;1.85;;;;;;;;;;4955850;28;20042;-76
2024/02/01 10:37:02;;;;;;;4.35;2.08;;;;;;;;;;5003912;28;20035;-77
2024/02/01 10:40:08;;;;;;;2.95;1.60;;;;;;;;;;4976465;28;20053;-76
2024/02/01 10:43:13;;;;;;;1.45;1.30;;;;;;;;;;4988380;28;20035;-72
2024/02/01 10:46:16;;;;;;;1.40;1.00;;;;;;;;;;5006371;28;20058;-76
2024/02/01 10:49:21;;;;;;;2.13;1.38;;;;;;;;;;4998528;28;20042;-76
2024/02/01 10:52:27;;;;;;;2.72;1.25;;;;;;;;;;4944534;29;20103;-74
2024/02/01 10:54:58;;;;;;;2.42;1.67;;;;;;;;;;4893460;29;20478;-77
2024/02/01 10:57:25;;;;;;;3.60;1.50;;;;;;;;;;4928345;28;20027;-77
2024/02/01 10:59:59;;;;;;;2.42;1.80;;;;;;;;;;4943373;28;20027;-80
2024/02/01 11:02:27;;;;;;;1.42;1.33;;;;;;;;;;4946845;29;20042;-79
2024/02/01 11:04:55;;;;;;;8.90;5.55;;;;;;;;;;4948058;28;20039;-74
2024/02/01 11:07:24;;;;;;;3.10;1.80;;;;;;;;;;4946619;29;20035;-77
2024/02/01 11:09:52;;;;;;;2.10;1.20;;;;;;;;;;4928024;29;20023;-74
2024/02/01 11:12:24;;;;;;;5.97;3.00;;;;;;;;;;4949771;29;20436;-74
2024/02/01 11:15:05;;;;;;;1.77;1.17;;;;;;;;;;4941927;29;20050;-75
2024/02/01 11:17:31;;;;;;;1.05;0.90;;;;;;;;;;4941196;28;20566;-74
2024/02/01 11:19:57;;;;;;;5.85;1.55;;;;;;;;;;4931788;29;20138;-74
2024/02/01 11:22:23;;;;;;;1.73;1.40;;;;;;;;;;4929448;29;20527;-77
2024/02/01 11:24:48;;;;;;;1.65;1.23;;;;;;;;;;4940487;29;20042;-75
2024/02/01 11:27:18;;;;;;;1.13;1.05;;;;;;;;;;4919994;29;20046;-74
2024/02/01 11:29:50;;;;;;;2.63;1.27;;;;;;;;;;4929177;29;20031;-75
2024/02/01 11:32:22;;;;;;;2.95;1.38;;;;;;;;;;4925739;29;20050;-76
2024/02/01 11:34:54;;;;;;;2.65;2.00;;;;;;;;;;4926584;29;20200;-77
2024/02/01 11:37:21;;;;;;;1.52;1.25;;;;;;;;;;4927617;29;20089;-74
2024/02/01 11:39:49;;;;;;;2.15;1.00;;;;;;;;;;4948131;29;20035;-77
2024/02/01 11:42:21;;;;;;;1.00;0.90;;;;;;;;;;4934264;28;20413;-76
2024/02/01 11:44:48;;;;;;;2.40;1.15;;;;;;;;;;4946279;29;20035;-75
2024/02/01 11:47:16;;;;;;;1.40;1.13;;;;;;;;;;4906005;29;20363;-76
2024/02/01 11:49:49;;;;;;;2.80;1.20;;;;;;;;;;4929528;29;20698;-75
2024/02/01 11:52:32;;;;;;;1.90;1.10;;;;;;;;;;4947503;28;20027;-78
2024/02/01 11:54:58;;;;;;;1.48;1.30;;;;;;;;;;4968754;28;20443;-75
2024/02/01 11:57:30;;;;;;;2.75;1.25;;;;;;;;;;4967418;28;20035;-74
2024/02/01 11:59:56;;;;;;;1.48;1.00;;;;;;;;;;4967707;28;20444;-79
2024/02/01 12:02:26;;;;;;;3.00;1.20;;;;;;;;;;4974679;28;20045;-75
2024/02/01 12:04:52;;;;;;;1.98;1.17;;;;;;;;;;4955198;28;20034;-74
2024/02/01 12:07:20;;;;;;;1.92;0.98;;;;;;;;;;4955413;28;20030;-76
2024/02/01 12:09:47;;;;;;;1.35;1.13;;;;;;;;;;4945238;28;20031;-79
2024/02/01 12:12:23;;;;;;;0.98;0.90;;;;;;;;;;4973953;28;20157;-74
2024/02/01 12:14:53;;;;;;;2.00;1.88;;;;;;;;;;4971488;28;20031;-77
2024/02/01 12:17:24;;;;;;;1.33;1.00;;;;;;;;;;4967269;28;20150;-75
2024/02/01 12:19:51;;;;;;;6.32;1.70;;;;;;;;;;4965004;28;20031;-77
2024/02/01 12:22:19;;;;;;;3.20;1.30;;;;;;;;;;4968902;28;20023;-77
2024/02/01 12:24:46;;;;;;;1.88;1.05;;;;;;;;;;4969778;28;20085;-76
2024/02/01 12:27:13;;;;;;;4.45;2.58;;;;;;;;;;4984500;28;20019;-75
2024/02/01 12:29:38;;;;;;;2.83;1.15;;;;;;;;;;4988989;28;20038;-77
2024/02/01 12:32:11;;;;;;;1.98;0.77;;;;;;;;;;4976501;28;20027;-72
2024/02/01 12:34:40;;;;;;;1.30;1.00;;;;;;;;;;4995465;28;20030;-77
2024/02/01 12:37:08;;;;;;;16.30;1.52;;;;;;;;;;4967643;28;20031;-77
2024/02/01 12:39:37;;;;;;;1.17;0.60;;;;;;;;;;4968098;28;20038;-75
2024/02/01 12:42:04;;;;;;;10.77;1.25;;;;;;;;;;4969687;28;20031;-76
2024/02/01 12:44:34;;;;;;;2.55;0.90;;;;;;;;;;4969124;28;20049;-76
2024/02/01 12:47:00;;;;;;;2.15;0.98;;;;;;;;;;4988548;28;20079;-74
2024/02/01 12:49:25;;;;;;;2.78;1.20;;;;;;;;;;4970496;28;20030;-77
2024/02/01 12:51:53;;;;;;;0.60;0.60;;;;;;;;;;4967243;28;20102;-74
2024/02/01 12:54:20;;;;;;;0.75;0.73;;;;;;;;;;4936114;28;20054;-76
2024/02/01 12:56:47;;;;;;;0.80;0.80;;;;;;;;;;4988883;28;20027;-72
2024/02/01 12:59:13;;;;;;;3.80;0.80;;;;;;;;;;4971557;28;20375;-75
2024/02/01 13:01:39;;;;;;;1.17;0.70;;;;;;;;;;4971267;28;20118;-74
2024/02/01 13:04:06;;;;;;;2.60;1.23;;;;;;;;;;4973832;28;20094;-75
2024/02/01 13:06:32;;;;;;;1.52;1.10;;;;;;;;;;4959047;28;20057;-78
2024/02/01 13:08:58;;;;;;;0.57;0.55;;;;;;;;;;4996716;28;20034;-78
2024/02/01 13:11:31;;;;;;;2.25;1.00;;;;;;;;;;4988684;28;20487;-77
2024/02/01 13:13:58;;;;;;;1.65;0.98;;;;;;;;;;4989829;28;20105;-77
2024/02/01 13:16:25;;;;;;;1.50;0.73;;;;;;;;;;4968420;28;20035;-76
2024/02/01 13:18:54;;;;;;;1.85;0.90;;;;;;;;;;4984225;28;20034;-78
2024/02/01 13:21:21;;;;;;;1.25;0.70;;;;;;;;;;4970304;28;20138;-75
2024/02/01 13:23:48;;;;;;;2.60;1.10;;;;;;;;;;4968441;28;20027;-76
2024/02/01 13:26:14;;;;;;;3.28;0.98;;;;;;;;;;4971263;28;20106;-76
2024/02/01 13:28:46;;;;;;;10.85;1.73;;;;;;;;;;4978513;28;20110;-76
2024/02/01 13:31:11;;;;;;;3.53;1.02;;;;;;;;;;4968073;28;20062;-77
2024/02/01 13:33:37;;;;;;;1.63;1.17;;;;;;;;;;4987207;28;20573;-75
2024/02/01 13:36:04;;;;;;;1.25;0.88;;;;;;;;;;4951768;28;20765;-77
2024/02/01 13:38:30;;;;;;;2.03;1.52;;;;;;;;;;4980660;28;20031;-77
2024/02/01 13:40:56;;;;;;;3.40;1.00;;;;;;;;;;4985443;28;20406;-73
2024/02/01 13:43:22;;;;;;;3.53;1.08;;;;;;;;;;4991226;28;20118;-75
2024/02/01 13:45:49;;;;;;;1.98;1.20;;;;;;;;;;4970759;28;20058;-76
2024/02/01 13:48:15;;;;;;;5.43;1.27;;;;;;;;;;4992685;28;20117;-74
2024/02/01 13:50:41;;;;;;;5.63;1.65;;;;;;;;;;4988995;28;20054;-74
2024/02/01 13:53:07;;;;;;;2.35;1.30;;;;;;;;;;4981052;28;20058;-77
2024/02/01 13:55:35;;;;;;;4.22;1.20;;;;;;;;;;4974928;28;20797;-77
2024/02/01 13:58:02;;;;;;;2.00;1.00;;;;;;;;;;4968592;28;20046;-74
2024/02/01 14:00:28;;;;;;;11.70;1.50;;;;;;;;;;4993823;28;20037;-77
2024/02/01 14:02:54;;;;;;;18.10;3.58;;;;;;;;;;4989164;28;20030;-75
2024/02/01 14:05:22;;;;;;;3.15;0.90;;;;;;;;;;4969938;28;20105;-76
2024/02/01 14:07:52;;;;;;;0.88;0.77;;;;;;;;;;4955933;28;20209;-76
2024/02/01 14:10:17;;;;;;;9.40;1.27;;;;;;;;;;4948669;28;21274;-75
2024/02/01 14:12:44;;;;;;;6.82;1.35;;;;;;;;;;4968282;28;20026;-76
2024/02/01 14:15:10;;;;;;;3.13;0.80;;;;;;;;;;4957613;28;20403;-76
2024/02/01 14:17:36;;;;;;;2.42;1.10;;;;;;;;;;4980393;28;20035;-76
2024/02/01 14:20:03;;;;;;;0.77;0.70;;;;;;;;;;4971685;28;20030;-78
2024/02/01 14:22:31;;;;;;;3.83;1.17;;;;;;;;;;4956444;28;20106;-77
2024/02/01 14:24:56;;;;;;;1.10;0.88;;;;;;;;;;4951287;28;20046;-75
2024/02/01 14:27:22;;;;;;;1.85;0.80;;;;;;;;;;4997974;28;20046;-75
2024/02/01 14:29:49;;;;;;;2.03;0.88;;;;;;;;;;4996497;28;20027;-76
2024/02/01 14:32:15;;;;;;;4.40;1.02;;;;;;;;;;4958000;28;20038;-80
2024/02/01 14:34:44;;;;;;;3.78;1.40;;;;;;;;;;4970030;28;20019;-77
2024/02/01 14:37:11;;;;;;;2.13;0.95;;;;;;;;;;4996956;28;20018;-72
2024/02/01 14:39:49;;;;;;;6.15;1.60;;;;;;;;;;4993327;28;20041;-80
2024/02/01 14:42:17;;;;;;;1.80;1.10;;;;;;;;;;4977054;28;20479;-77
2024/02/01 14:44:46;;;;;;;6.03;1.00;;;;;;;;;;4991268;28;20050;-78
2024/02/01 14:47:12;;;;;;;2.10;1.15;;;;;;;;;;4994471;28;20022;-75
2024/02/01 14:49:37;;;;;;;2.33;0.93;;;;;;;;;;4982035;28;20034;-71
2024/02/01 14:52:04;;;;;;;3.58;0.95;;;;;;;;;;4993804;28;20026;-77
2024/02/01 14:54:32;;;;;;;5.13;1.42;;;;;;;;;;4981017;28;20050;-75
2024/02/01 14:56:58;;;;;;;1.75;1.00;;;;;;;;;;4991079;28;20039;-76
2024/02/01 14:59:24;;;;;;;1.80;1.42;;;;;;;;;;4988685;28;20105;-77
2024/02/01 15:01:49;;;;;;;3.83;0.93;;;;;;;;;;4976503;28;20479;-76
2024/02/01 15:04:15;;;;;;;2.67;1.10;;;;;;;;;;4986711;28;20034;-77
2024/02/01 15:06:42;;;;;;;3.15;1.17;;;;;;;;;;4967620;28;20401;-77
2024/02/01 15:09:10;;;;;;;2.13;1.02;;;;;;;;;;4956884;28;20464;-77
2024/02/01 15:11:38;;;;;;;1.50;1.33;;;;;;;;;;4961080;28;20112;-75
2024/02/01 15:14:04;;;;;;;2.25;0.93;;;;;;;;;;4970543;28;20030;-73
2024/02/01 15:16:32;;;;;;;1.60;1.27;;;;;;;;;;4962056;28;20054;-75
2024/02/01 15:19:01;;;;;;;1.50;0.85;;;;;;;;;;4969629;28;20061;-76
2024/02/01 15:21:30;;;;;;;2.47;1.17;;;;;;;;;;4962832;28;20406;-76
2024/02/01 15:23:59;;;;;;;1.92;1.73;;;;;;;;;;4965263;28;20456;-75
2024/02/01 15:26:26;;;;;;;4.35;1.17;;;;;;;;;;4947790;28;20069;-75
2024/02/01 15:28:52;;;;;;;2.35;1.30;;;;;;;;;;4953161;28;20377;-76
2024/02/01 15:31:22;;;;;;;4.90;1.20;;;;;;;;;;4979515;28;20045;-75
2024/02/01 15:33:53;;;;;;;2.28;1.40;;;;;;;;;;4944467;28;20518;-75
2024/02/01 15:36:24;;;;;;;3.80;1.95;;;;;;;;;;4969646;28;20026;-75
2024/02/01 15:38:51;;;;;;;2.05;0.98;;;;;;;;;;4968202;28;20066;-76
2024/02/01 15:41:18;;;;;;;3.55;1.27;;;;;;;;;;4937141;28;20035;-76
2024/02/01 15:43:44;;;;;;;4.18;1.20;;;;;;;;;;4967564;28;20518;-75
2024/02/01 15:46:11;;;;;;;3.50;1.30;;;;;;;;;;4957696;28;20035;-74
2024/02/01 15:48:42;;;;;;;5.47;1.75;;;;;;;;;;4962089;28;20502;-76